Detall de PIREP

Printer-friendly versionPDF version

[2010/12/03 22:39:00]
Flight IATA:CT3233
Pilot Number:042
Company ICAO:CAT
Aircraft Type:B744/E
PAX:300
Departing Airport: LEMD
Destination Airport: LEPA
Alternate Airport:LEBL
Online: VATSIM
Route:NANDO UW107 CLS UN733 GATOS
Flight Level:FL300
No Slew and time accel
No pause
Crash detect
Detect pilot in Cockpit between each 30 and 45 minutes
22:39 Zero fuel Weight: 466688 Lbs, Fuel Weight: 383016 Lbs
22:39 VATSIM:LEMD 032200Z VRB02KT CAVOK M01/M04 Q1021 NOSIG
22:39 VATSIM:LEPA 032200Z 27005KT 9999 FEW025 09/03 Q1019 NOSIG
22:39 VOICE CATALONIAN
22:50 Parking Brakes off
22:59 Take-off
22:59 Take off Weight: 846097 Lbs
22:59 Wind: 000 @ 000 Knots Heading: 000
22:59 POS N40 31 15 W003 34 28
23:00 Gear Up: 216 Knots
23:00 Flaps:4 at 216 Knots
23:00 Flaps:3 at 210 Knots
23:00 Flaps:2 at 237 Knots
23:00 Flaps:1 at 261 Knots
23:01 Flaps:0 at 252 Knots
23:15 Wind:293@061 Knots Heading: 126 Ground Speed: 515 Knots Altitude 24872 ft
23:23 TOC
23:23 Fuel Weight: 358363 Lb
23:30 Wind:301@092 Knots Heading: 085 Ground Speed: 554 Knots Altitude 30022 ft
23:30 TOD
23:30 Fuel Weight: 355183 Lb
23:40 Flaps:1 at 266 Knots
23:40 Flaps:2 at 243 Knots
23:41 Flaps:1 at 246 Knots
23:42 Flaps:2 at 229 Knots
23:43 Flaps:3 at 214 Knots
23:45 Wind:000@000 Knots Heading: 123 Ground Speed: 189 Knots Altitude 2267 ft
23:45 Gear Down: 187 Knots
23:45 Flaps:4 at 184 Knots
23:45 Flaps:5 at 183 Knots
23:48 TouchDown:Rate -182 ft/min Speed: 162 Knots
23:48 VATSIM:LEPA 032330Z 00000KT 9999 FEW025 05/02 Q1019 NOSIG
23:48 Land
23:48 Wind:000@000 Knots
23:48 Heading: 058
23:48 Flight Duration: 00:49
23:48 Landing Weight: 816335 Lbs
23:48 POS N39 33 18 E002 43 38
23:51 Parking brakes on
23:51 Block to Block Duration:01:01
23:51 Final Fuel: 348845 Lbls
23:51 Spent Fuel: 34171 Lbls
23:51 Flight Length: 332 NM
23:51 TOD Land Length: 96 NM

Exportar CSV

Powered by Drupal - Modified by Danger4k